sensor_id;sensor_type;location;lat;lon;timestamp;P1;durP1;ratioP1;P2;durP2;ratioP2
23561;SDS011;11959;49.418;8.728;2022-11-12T00:01:12;18.77;;;8.73;;
23561;SDS011;11959;49.418;8.728;2022-11-12T00:03:38;16.27;;;7.88;;
23561;SDS011;11959;49.418;8.728;2022-11-12T00:06:03;23.27;;;8.00;;
23561;SDS011;11959;49.418;8.728;2022-11-12T00:08:29;14.00;;;7.20;;
23561;SDS011;11959;49.418;8.728;2022-11-12T00:10:55;12.40;;;6.85;;
23561;SDS011;11959;49.418;8.728;2022-11-12T00:13:20;18.63;;;7.38;;
23561;SDS011;11959;49.418;8.728;2022-11-12T00:15:46;16.00;;;7.00;;
23561;SDS011;11959;49.418;8.728;2022-11-12T00:18:12;18.98;;;8.10;;
23561;SDS011;11959;49.418;8.728;2022-11-12T00:20:37;16.92;;;7.00;;
23561;SDS011;11959;49.418;8.728;2022-11-12T00:23:03;19.52;;;7.97;;
23561;SDS011;11959;49.418;8.728;2022-11-12T00:25:29;9.60;;;6.82;;
23561;SDS011;11959;49.418;8.728;2022-11-12T00:28:01;16.65;;;7.43;;
23561;SDS011;11959;49.418;8.728;2022-11-12T00:30:29;8.77;;;6.40;;
23561;SDS011;11959;49.418;8.728;2022-11-12T00:32:54;10.68;;;6.88;;
23561;SDS011;11959;49.418;8.728;2022-11-12T00:35:20;9.63;;;6.40;;
23561;SDS011;11959;49.418;8.728;2022-11-12T00:37:46;8.25;;;6.70;;
23561;SDS011;11959;49.418;8.728;2022-11-12T00:40:11;11.57;;;6.13;;
23561;SDS011;11959;49.418;8.728;2022-11-12T00:42:37;8.52;;;6.20;;
23561;SDS011;11959;49.418;8.728;2022-11-12T00:45:03;7.93;;;6.28;;
23561;SDS011;11959;49.418;8.728;2022-11-12T00:47:28;7.35;;;6.00;;
23561;SDS011;11959;49.418;8.728;2022-11-12T00:49:54;12.00;;;7.10;;
23561;SDS011;11959;49.418;8.728;2022-11-12T00:52:20;14.60;;;7.28;;
23561;SDS011;11959;49.418;8.728;2022-11-12T00:54:46;8.93;;;6.55;;
23561;SDS011;11959;49.418;8.728;2022-11-12T00:57:12;8.80;;;6.40;;
23561;SDS011;11959;49.418;8.728;2022-11-12T00:59:38;20.35;;;7.20;;
23561;SDS011;11959;49.418;8.728;2022-11-12T01:02:04;35.58;;;8.13;;
23561;SDS011;11959;49.418;8.728;2022-11-12T01:04:29;8.30;;;6.40;;
23561;SDS011;11959;49.418;8.728;2022-11-12T01:06:55;8.93;;;6.78;;
23561;SDS011;11959;49.418;8.728;2022-11-12T01:09:20;16.02;;;7.05;;
23561;SDS011;11959;49.418;8.728;2022-11-12T01:11:46;11.07;;;6.53;;
23561;SDS011;11959;49.418;8.728;2022-11-12T01:14:12;11.75;;;7.30;;
23561;SDS011;11959;49.418;8.728;2022-11-12T01:16:38;10.60;;;6.80;;
23561;SDS011;11959;49.418;8.728;2022-11-12T01:19:06;9.43;;;6.97;;
23561;SDS011;11959;49.418;8.728;2022-11-12T01:21:36;9.95;;;6.78;;
23561;SDS011;11959;49.418;8.728;2022-11-12T01:24:04;9.52;;;6.70;;
23561;SDS011;11959;49.418;8.728;2022-11-12T01:26:30;10.52;;;7.55;;
23561;SDS011;11959;49.418;8.728;2022-11-12T01:28:56;20.00;;;7.90;;
23561;SDS011;11959;49.418;8.728;2022-11-12T01:31:26;11.93;;;7.15;;
23561;SDS011;11959;49.418;8.728;2022-11-12T01:33:57;10.00;;;7.20;;
23561;SDS011;11959;49.418;8.728;2022-11-12T01:36:25;10.18;;;6.78;;
23561;SDS011;11959;49.418;8.728;2022-11-12T01:38:53;10.88;;;6.85;;
23561;SDS011;11959;49.418;8.728;2022-11-12T01:41:20;10.20;;;7.38;;
23561;SDS011;11959;49.418;8.728;2022-11-12T01:44:05;21.08;;;7.38;;
23561;SDS011;11959;49.418;8.728;2022-11-12T01:46:34;12.15;;;7.10;;
23561;SDS011;11959;49.418;8.728;2022-11-12T01:49:07;20.30;;;8.13;;
23561;SDS011;11959;49.418;8.728;2022-11-12T01:51:39;9.35;;;6.90;;
23561;SDS011;11959;49.418;8.728;2022-11-12T01:54:08;10.15;;;6.78;;
23561;SDS011;11959;49.418;8.728;2022-11-12T01:56:37;10.52;;;7.15;;
23561;SDS011;11959;49.418;8.728;2022-11-12T01:59:04;8.98;;;6.70;;
23561;SDS011;11959;49.418;8.728;2022-11-12T02:01:36;8.73;;;6.95;;
23561;SDS011;11959;49.418;8.728;2022-11-12T02:04:02;10.85;;;6.45;;
23561;SDS011;11959;49.418;8.728;2022-11-12T02:06:28;11.45;;;7.70;;
23561;SDS011;11959;49.418;8.728;2022-11-12T02:08:55;13.27;;;6.53;;
23561;SDS011;11959;49.418;8.728;2022-11-12T02:11:22;8.57;;;6.43;;
23561;SDS011;11959;49.418;8.728;2022-11-12T02:13:48;16.42;;;6.90;;
23561;SDS011;11959;49.418;8.728;2022-11-12T02:16:29;9.02;;;5.97;;
23561;SDS011;11959;49.418;8.728;2022-11-12T02:19:02;15.75;;;7.57;;
23561;SDS011;11959;49.418;8.728;2022-11-12T02:21:30;13.65;;;7.53;;
23561;SDS011;11959;49.418;8.728;2022-11-12T02:24:00;12.65;;;7.00;;
23561;SDS011;11959;49.418;8.728;2022-11-12T02:26:29;10.60;;;7.07;;
23561;SDS011;11959;49.418;8.728;2022-11-12T02:28:59;11.13;;;6.75;;
23561;SDS011;11959;49.418;8.728;2022-11-12T02:31:25;14.02;;;7.38;;
23561;SDS011;11959;49.418;8.728;2022-11-12T02:33:51;9.52;;;6.95;;
23561;SDS011;11959;49.418;8.728;2022-11-12T02:36:17;10.18;;;6.88;;
23561;SDS011;11959;49.418;8.728;2022-11-12T02:38:42;19.90;;;7.57;;
23561;SDS011;11959;49.418;8.728;2022-11-12T02:41:08;10.50;;;6.97;;
23561;SDS011;11959;49.418;8.728;2022-11-12T02:43:34;11.55;;;6.95;;
23561;SDS011;11959;49.418;8.728;2022-11-12T02:45:59;16.23;;;7.38;;
23561;SDS011;11959;49.418;8.728;2022-11-12T02:48:25;9.77;;;7.25;;
23561;SDS011;11959;49.418;8.728;2022-11-12T02:50:51;11.10;;;7.55;;
23561;SDS011;11959;49.418;8.728;2022-11-12T02:53:16;20.27;;;7.93;;
23561;SDS011;11959;49.418;8.728;2022-11-12T02:55:42;9.95;;;7.10;;
23561;SDS011;11959;49.418;8.728;2022-11-12T02:58:08;8.18;;;5.97;;
23561;SDS011;11959;49.418;8.728;2022-11-12T03:00:34;16.88;;;7.43;;
23561;SDS011;11959;49.418;8.728;2022-11-12T03:02:59;9.50;;;6.85;;
23561;SDS011;11959;49.418;8.728;2022-11-12T03:05:29;8.82;;;6.80;;
23561;SDS011;11959;49.418;8.728;2022-11-12T03:07:57;9.05;;;6.35;;
23561;SDS011;11959;49.418;8.728;2022-11-12T03:10:24;9.13;;;6.47;;
23561;SDS011;11959;49.418;8.728;2022-11-12T03:12:50;14.98;;;8.10;;
23561;SDS011;11959;49.418;8.728;2022-11-12T03:15:17;13.23;;;7.50;;
23561;SDS011;11959;49.418;8.728;2022-11-12T03:17:43;49.20;;;9.93;;
23561;SDS011;11959;49.418;8.728;2022-11-12T03:20:09;10.07;;;6.85;;
23561;SDS011;11959;49.418;8.728;2022-11-12T03:22:35;12.05;;;7.55;;
23561;SDS011;11959;49.418;8.728;2022-11-12T03:25:01;9.23;;;6.97;;
23561;SDS011;11959;49.418;8.728;2022-11-12T03:27:27;12.55;;;6.80;;
23561;SDS011;11959;49.418;8.728;2022-11-12T03:29:53;9.35;;;6.53;;
23561;SDS011;11959;49.418;8.728;2022-11-12T03:32:19;9.38;;;6.68;;
23561;SDS011;11959;49.418;8.728;2022-11-12T03:34:44;7.93;;;6.30;;
23561;SDS011;11959;49.418;8.728;2022-11-12T03:37:10;8.52;;;6.47;;
23561;SDS011;11959;49.418;8.728;2022-11-12T03:39:35;9.80;;;6.38;;
23561;SDS011;11959;49.418;8.728;2022-11-12T03:42:01;13.85;;;6.60;;
23561;SDS011;11959;49.418;8.728;2022-11-12T03:44:27;7.88;;;5.88;;
23561;SDS011;11959;49.418;8.728;2022-11-12T03:46:53;9.60;;;6.43;;
23561;SDS011;11959;49.418;8.728;2022-11-12T03:49:18;8.98;;;6.70;;
23561;SDS011;11959;49.418;8.728;2022-11-12T03:51:44;9.27;;;6.50;;
23561;SDS011;11959;49.418;8.728;2022-11-12T03:54:10;9.60;;;6.78;;
23561;SDS011;11959;49.418;8.728;2022-11-12T03:56:36;10.25;;;5.80;;
23561;SDS011;11959;49.418;8.728;2022-11-12T03:59:02;8.85;;;5.88;;
23561;SDS011;11959;49.418;8.728;2022-11-12T04:01:28;7.53;;;5.47;;
23561;SDS011;11959;49.418;8.728;2022-11-12T04:03:53;12.05;;;5.97;;
23561;SDS011;11959;49.418;8.728;2022-11-12T04:06:19;11.40;;;5.93;;
23561;SDS011;11959;49.418;8.728;2022-11-12T04:09:03;10.48;;;6.20;;
23561;SDS011;11959;49.418;8.728;2022-11-12T04:11:29;8.20;;;5.53;;
23561;SDS011;11959;49.418;8.728;2022-11-12T04:13:55;13.55;;;6.40;;
23561;SDS011;11959;49.418;8.728;2022-11-12T04:16:21;7.55;;;5.20;;
23561;SDS011;11959;49.418;8.728;2022-11-12T04:19:06;10.98;;;6.10;;
23561;SDS011;11959;49.418;8.728;2022-11-12T04:21:58;13.68;;;5.53;;
23561;SDS011;11959;49.418;8.728;2022-11-12T04:24:34;8.65;;;5.65;;
23561;SDS011;11959;49.418;8.728;2022-11-12T04:27:37;7.60;;;4.65;;
23561;SDS011;11959;49.418;8.728;2022-11-12T04:30:03;9.35;;;5.40;;
23561;SDS011;11959;49.418;8.728;2022-11-12T04:32:47;7.15;;;5.13;;
23561;SDS011;11959;49.418;8.728;2022-11-12T04:35:14;18.23;;;5.90;;
23561;SDS011;11959;49.418;8.728;2022-11-12T04:37:41;16.33;;;5.78;;
23561;SDS011;11959;49.418;8.728;2022-11-12T04:40:13;12.75;;;5.82;;
23561;SDS011;11959;49.418;8.728;2022-11-12T04:42:58;9.77;;;5.55;;
23561;SDS011;11959;49.418;8.728;2022-11-12T04:45:42;12.25;;;5.53;;
23561;SDS011;11959;49.418;8.728;2022-11-12T04:48:10;42.35;;;6.85;;
23561;SDS011;11959;49.418;8.728;2022-11-12T04:50:36;10.18;;;5.00;;
23561;SDS011;11959;49.418;8.728;2022-11-12T04:53:02;6.20;;;4.80;;
23561;SDS011;11959;49.418;8.728;2022-11-12T04:55:27;41.97;;;7.85;;
23561;SDS011;11959;49.418;8.728;2022-11-12T04:57:53;26.45;;;5.95;;
23561;SDS011;11959;49.418;8.728;2022-11-12T05:00:18;6.30;;;4.60;;
23561;SDS011;11959;49.418;8.728;2022-11-12T05:02:44;11.73;;;5.30;;
23561;SDS011;11959;49.418;8.728;2022-11-12T05:05:10;9.20;;;4.60;;
23561;SDS011;11959;49.418;8.728;2022-11-12T05:07:36;17.95;;;5.07;;
23561;SDS011;11959;49.418;8.728;2022-11-12T05:10:01;6.97;;;4.60;;
23561;SDS011;11959;49.418;8.728;2022-11-12T05:12:27;20.45;;;5.78;;
23561;SDS011;11959;49.418;8.728;2022-11-12T05:14:52;5.75;;;4.30;;
23561;SDS011;11959;49.418;8.728;2022-11-12T05:17:18;12.25;;;4.97;;
23561;SDS011;11959;49.418;8.728;2022-11-12T05:19:44;7.95;;;4.53;;
23561;SDS011;11959;49.418;8.728;2022-11-12T05:22:09;18.52;;;5.45;;
23561;SDS011;11959;49.418;8.728;2022-11-12T05:24:37;6.78;;;4.13;;
23561;SDS011;11959;49.418;8.728;2022-11-12T05:27:05;5.70;;;4.35;;
23561;SDS011;11959;49.418;8.728;2022-11-12T05:29:35;10.68;;;4.93;;
23561;SDS011;11959;49.418;8.728;2022-11-12T05:32:01;14.30;;;4.93;;
23561;SDS011;11959;49.418;8.728;2022-11-12T05:34:26;12.95;;;5.47;;
23561;SDS011;11959;49.418;8.728;2022-11-12T05:36:53;9.20;;;4.15;;
23561;SDS011;11959;49.418;8.728;2022-11-12T05:39:18;5.38;;;4.18;;
23561;SDS011;11959;49.418;8.728;2022-11-12T05:41:44;8.27;;;4.93;;
23561;SDS011;11959;49.418;8.728;2022-11-12T05:44:10;5.28;;;4.20;;
23561;SDS011;11959;49.418;8.728;2022-11-12T05:46:35;12.95;;;5.18;;
23561;SDS011;11959;49.418;8.728;2022-11-12T05:49:01;34.38;;;7.13;;
23561;SDS011;11959;49.418;8.728;2022-11-12T05:51:27;35.92;;;7.05;;
23561;SDS011;11959;49.418;8.728;2022-11-12T05:53:52;6.50;;;4.80;;
23561;SDS011;11959;49.418;8.728;2022-11-12T05:56:18;14.98;;;5.03;;
23561;SDS011;11959;49.418;8.728;2022-11-12T05:58:44;8.40;;;4.63;;
23561;SDS011;11959;49.418;8.728;2022-11-12T06:01:09;7.45;;;4.90;;
23561;SDS011;11959;49.418;8.728;2022-11-12T06:03:35;17.48;;;6.18;;
23561;SDS011;11959;49.418;8.728;2022-11-12T06:06:01;6.88;;;4.72;;
23561;SDS011;11959;49.418;8.728;2022-11-12T06:08:26;9.27;;;5.35;;
23561;SDS011;11959;49.418;8.728;2022-11-12T06:10:52;6.97;;;4.78;;
23561;SDS011;11959;49.418;8.728;2022-11-12T06:13:22;17.77;;;5.82;;
23561;SDS011;11959;49.418;8.728;2022-11-12T06:15:50;29.20;;;6.60;;
23561;SDS011;11959;49.418;8.728;2022-11-12T06:18:19;10.05;;;4.90;;
23561;SDS011;11959;49.418;8.728;2022-11-12T06:20:45;7.25;;;4.55;;
23561;SDS011;11959;49.418;8.728;2022-11-12T06:23:31;21.75;;;6.13;;
23561;SDS011;11959;49.418;8.728;2022-11-12T06:25:57;7.78;;;5.47;;
23561;SDS011;11959;49.418;8.728;2022-11-12T06:28:23;12.77;;;5.75;;
23561;SDS011;11959;49.418;8.728;2022-11-12T06:30:49;7.13;;;4.88;;
23561;SDS011;11959;49.418;8.728;2022-11-12T06:33:14;15.73;;;5.30;;
23561;SDS011;11959;49.418;8.728;2022-11-12T06:35:40;21.52;;;6.55;;
23561;SDS011;11959;49.418;8.728;2022-11-12T06:38:06;14.85;;;6.28;;
23561;SDS011;11959;49.418;8.728;2022-11-12T06:40:32;9.13;;;5.72;;
23561;SDS011;11959;49.418;8.728;2022-11-12T06:42:58;25.48;;;7.18;;
23561;SDS011;11959;49.418;8.728;2022-11-12T06:45:23;11.32;;;5.82;;
23561;SDS011;11959;49.418;8.728;2022-11-12T06:47:49;9.07;;;5.97;;
23561;SDS011;11959;49.418;8.728;2022-11-12T06:50:15;7.97;;;5.03;;
23561;SDS011;11959;49.418;8.728;2022-11-12T06:52:41;25.77;;;7.78;;
23561;SDS011;11959;49.418;8.728;2022-11-12T06:55:06;7.82;;;5.75;;
23561;SDS011;11959;49.418;8.728;2022-11-12T06:57:35;13.38;;;5.38;;
23561;SDS011;11959;49.418;8.728;2022-11-12T07:00:00;25.98;;;6.32;;
23561;SDS011;11959;49.418;8.728;2022-11-12T07:02:26;21.52;;;6.20;;
23561;SDS011;11959;49.418;8.728;2022-11-12T07:04:52;40.22;;;7.55;;
23561;SDS011;11959;49.418;8.728;2022-11-12T07:07:17;24.58;;;6.05;;
23561;SDS011;11959;49.418;8.728;2022-11-12T07:09:43;15.45;;;5.35;;
23561;SDS011;11959;49.418;8.728;2022-11-12T07:12:08;17.60;;;5.97;;
23561;SDS011;11959;49.418;8.728;2022-11-12T07:14:34;15.40;;;5.97;;
23561;SDS011;11959;49.418;8.728;2022-11-12T07:17:00;10.75;;;6.72;;
23561;SDS011;11959;49.418;8.728;2022-11-12T07:19:25;25.20;;;7.72;;
23561;SDS011;11959;49.418;8.728;2022-11-12T07:21:51;27.38;;;6.45;;
23561;SDS011;11959;49.418;8.728;2022-11-12T07:24:17;16.00;;;6.18;;
23561;SDS011;11959;49.418;8.728;2022-11-12T07:26:42;32.40;;;8.23;;
23561;SDS011;11959;49.418;8.728;2022-11-12T07:29:08;24.92;;;6.20;;
23561;SDS011;11959;49.418;8.728;2022-11-12T07:31:34;21.52;;;6.25;;
23561;SDS011;11959;49.418;8.728;2022-11-12T07:33:59;32.65;;;7.18;;
23561;SDS011;11959;49.418;8.728;2022-11-12T07:36:25;26.17;;;6.78;;
23561;SDS011;11959;49.418;8.728;2022-11-12T07:38:52;34.72;;;7.20;;
23561;SDS011;11959;49.418;8.728;2022-11-12T07:41:22;13.30;;;6.05;;
23561;SDS011;11959;49.418;8.728;2022-11-12T07:43:49;17.38;;;5.97;;
23561;SDS011;11959;49.418;8.728;2022-11-12T07:46:17;14.10;;;5.40;;
23561;SDS011;11959;49.418;8.728;2022-11-12T07:48:44;10.60;;;5.57;;
23561;SDS011;11959;49.418;8.728;2022-11-12T07:51:14;24.45;;;6.53;;
23561;SDS011;11959;49.418;8.728;2022-11-12T07:53:42;20.13;;;6.05;;
23561;SDS011;11959;49.418;8.728;2022-11-12T07:56:13;52.53;;;9.50;;
23561;SDS011;11959;49.418;8.728;2022-11-12T07:58:40;37.13;;;8.27;;
23561;SDS011;11959;49.418;8.728;2022-11-12T08:01:27;30.65;;;8.07;;
23561;SDS011;11959;49.418;8.728;2022-11-12T08:03:57;12.05;;;6.20;;
23561;SDS011;11959;49.418;8.728;2022-11-12T08:06:25;8.63;;;5.47;;
23561;SDS011;11959;49.418;8.728;2022-11-12T08:08:51;27.13;;;7.00;;
23561;SDS011;11959;49.418;8.728;2022-11-12T08:11:18;16.23;;;5.82;;
23561;SDS011;11959;49.418;8.728;2022-11-12T08:13:44;22.33;;;6.13;;
23561;SDS011;11959;49.418;8.728;2022-11-12T08:16:09;18.73;;;6.28;;
23561;SDS011;11959;49.418;8.728;2022-11-12T08:18:35;14.57;;;6.13;;
23561;SDS011;11959;49.418;8.728;2022-11-12T08:21:01;10.55;;;5.50;;
23561;SDS011;11959;49.418;8.728;2022-11-12T08:23:28;23.02;;;6.93;;
23561;SDS011;11959;49.418;8.728;2022-11-12T08:26:01;8.55;;;5.63;;
23561;SDS011;11959;49.418;8.728;2022-11-12T08:28:29;24.38;;;7.20;;
23561;SDS011;11959;49.418;8.728;2022-11-12T08:30:56;22.45;;;6.45;;
23561;SDS011;11959;49.418;8.728;2022-11-12T08:33:22;8.00;;;6.22;;
23561;SDS011;11959;49.418;8.728;2022-11-12T08:35:48;11.77;;;6.05;;
23561;SDS011;11959;49.418;8.728;2022-11-12T08:38:14;8.88;;;5.63;;
23561;SDS011;11959;49.418;8.728;2022-11-12T08:40:40;6.78;;;5.53;;
23561;SDS011;11959;49.418;8.728;2022-11-12T08:43:07;7.47;;;5.82;;
23561;SDS011;11959;49.418;8.728;2022-11-12T08:45:35;11.52;;;6.60;;
23561;SDS011;11959;49.418;8.728;2022-11-12T08:48:03;12.80;;;6.30;;
23561;SDS011;11959;49.418;8.728;2022-11-12T08:50:31;9.50;;;5.95;;
23561;SDS011;11959;49.418;8.728;2022-11-12T08:52:58;8.57;;;6.50;;
23561;SDS011;11959;49.418;8.728;2022-11-12T08:55:25;10.38;;;7.63;;
23561;SDS011;11959;49.418;8.728;2022-11-12T08:57:52;10.45;;;7.55;;
23561;SDS011;11959;49.418;8.728;2022-11-12T09:00:18;10.48;;;7.55;;
23561;SDS011;11959;49.418;8.728;2022-11-12T09:02:43;13.52;;;8.85;;
23561;SDS011;11959;49.418;8.728;2022-11-12T09:05:09;12.57;;;8.57;;
23561;SDS011;11959;49.418;8.728;2022-11-12T09:07:35;11.02;;;7.70;;
23561;SDS011;11959;49.418;8.728;2022-11-12T09:10:00;18.45;;;9.77;;
23561;SDS011;11959;49.418;8.728;2022-11-12T09:12:26;13.52;;;9.57;;
23561;SDS011;11959;49.418;8.728;2022-11-12T09:14:52;14.65;;;9.60;;
23561;SDS011;11959;49.418;8.728;2022-11-12T09:17:18;15.95;;;9.98;;
23561;SDS011;11959;49.418;8.728;2022-11-12T09:19:43;20.17;;;10.18;;
23561;SDS011;11959;49.418;8.728;2022-11-12T09:22:09;19.70;;;10.07;;
23561;SDS011;11959;49.418;8.728;2022-11-12T09:24:35;15.02;;;8.77;;
23561;SDS011;11959;49.418;8.728;2022-11-12T09:27:00;15.07;;;9.18;;
23561;SDS011;11959;49.418;8.728;2022-11-12T09:29:26;13.52;;;8.82;;
23561;SDS011;11959;49.418;8.728;2022-11-12T09:31:52;12.20;;;8.52;;
23561;SDS011;11959;49.418;8.728;2022-11-12T09:34:18;12.77;;;8.82;;
23561;SDS011;11959;49.418;8.728;2022-11-12T09:36:44;11.98;;;8.88;;
23561;SDS011;11959;49.418;8.728;2022-11-12T09:39:09;12.55;;;8.57;;
23561;SDS011;11959;49.418;8.728;2022-11-12T09:41:38;13.60;;;8.95;;
23561;SDS011;11959;49.418;8.728;2022-11-12T09:44:20;12.27;;;8.43;;
23561;SDS011;11959;49.418;8.728;2022-11-12T09:46:52;13.90;;;8.10;;
23561;SDS011;11959;49.418;8.728;2022-11-12T09:49:31;13.13;;;8.85;;
23561;SDS011;11959;49.418;8.728;2022-11-12T09:52:18;12.88;;;8.98;;
23561;SDS011;11959;49.418;8.728;2022-11-12T09:54:49;11.75;;;8.57;;
23561;SDS011;11959;49.418;8.728;2022-11-12T09:57:21;13.10;;;8.50;;
23561;SDS011;11959;49.418;8.728;2022-11-12T09:59:47;12.95;;;8.48;;
23561;SDS011;11959;49.418;8.728;2022-11-12T10:12:41;12.73;;;8.90;;
23561;SDS011;11959;49.418;8.728;2022-11-12T10:21:18;11.50;;;8.50;;
23561;SDS011;11959;49.418;8.728;2022-11-12T10:23:48;11.48;;;8.30;;
23561;SDS011;11959;49.418;8.728;2022-11-12T10:26:16;12.77;;;9.50;;
23561;SDS011;11959;49.418;8.728;2022-11-12T10:28:45;11.15;;;8.20;;
23561;SDS011;11959;49.418;8.728;2022-11-12T10:31:18;13.80;;;9.20;;
23561;SDS011;11959;49.418;8.728;2022-11-12T10:33:45;12.38;;;8.95;;
23561;SDS011;11959;49.418;8.728;2022-11-12T10:36:19;13.63;;;9.35;;
23561;SDS011;11959;49.418;8.728;2022-11-12T10:38:49;12.57;;;9.07;;
23561;SDS011;11959;49.418;8.728;2022-11-12T10:41:19;13.15;;;9.70;;
23561;SDS011;11959;49.418;8.728;2022-11-12T10:43:55;13.88;;;9.07;;
23561;SDS011;11959;49.418;8.728;2022-11-12T10:46:32;12.18;;;9.27;;
23561;SDS011;11959;49.418;8.728;2022-11-12T10:49:04;12.38;;;8.65;;
23561;SDS011;11959;49.418;8.728;2022-11-12T10:51:35;12.63;;;9.43;;
23561;SDS011;11959;49.418;8.728;2022-11-12T10:54:19;23.23;;;10.80;;
23561;SDS011;11959;49.418;8.728;2022-11-12T10:56:52;140.70;;;25.65;;
23561;SDS011;11959;49.418;8.728;2022-11-12T10:59:22;19.60;;;10.32;;
23561;SDS011;11959;49.418;8.728;2022-11-12T11:01:58;11.55;;;8.52;;
23561;SDS011;11959;49.418;8.728;2022-11-12T11:07:20;11.77;;;8.55;;
23561;SDS011;11959;49.418;8.728;2022-11-12T11:09:55;12.38;;;8.98;;
23561;SDS011;11959;49.418;8.728;2022-11-12T11:12:32;12.73;;;9.23;;
23561;SDS011;11959;49.418;8.728;2022-11-12T11:15:05;12.05;;;9.00;;
23561;SDS011;11959;49.418;8.728;2022-11-12T11:17:35;13.95;;;9.32;;
23561;SDS011;11959;49.418;8.728;2022-11-12T11:20:02;11.88;;;8.77;;
23561;SDS011;11959;49.418;8.728;2022-11-12T11:22:43;11.93;;;9.05;;
23561;SDS011;11959;49.418;8.728;2022-11-12T11:25:29;12.43;;;9.70;;
23561;SDS011;11959;49.418;8.728;2022-11-12T11:28:06;13.25;;;9.13;;
23561;SDS011;11959;49.418;8.728;2022-11-12T11:34:03;12.30;;;9.20;;
23561;SDS011;11959;49.418;8.728;2022-11-12T11:36:41;12.30;;;9.32;;
23561;SDS011;11959;49.418;8.728;2022-11-12T11:39:17;11.93;;;9.25;;
23561;SDS011;11959;49.418;8.728;2022-11-12T11:42:01;13.45;;;9.23;;
23561;SDS011;11959;49.418;8.728;2022-11-12T11:55:07;12.25;;;9.15;;
23561;SDS011;11959;49.418;8.728;2022-11-12T12:00:27;13.30;;;9.60;;
23561;SDS011;11959;49.418;8.728;2022-11-12T12:03:15;14.20;;;9.93;;
23561;SDS011;11959;49.418;8.728;2022-11-12T12:05:42;15.02;;;10.50;;
23561;SDS011;11959;49.418;8.728;2022-11-12T12:08:52;13.80;;;10.00;;
23561;SDS011;11959;49.418;8.728;2022-11-12T12:11:34;14.18;;;9.77;;
23561;SDS011;11959;49.418;8.728;2022-11-12T12:20:02;14.40;;;9.75;;
23561;SDS011;11959;49.418;8.728;2022-11-12T12:22:45;15.60;;;10.35;;
23561;SDS011;11959;49.418;8.728;2022-11-12T12:25:22;14.20;;;10.23;;
23561;SDS011;11959;49.418;8.728;2022-11-12T12:31:00;14.98;;;10.35;;
23561;SDS011;11959;49.418;8.728;2022-11-12T12:36:20;15.30;;;10.25;;
23561;SDS011;11959;49.418;8.728;2022-11-12T12:41:38;12.77;;;9.38;;
23561;SDS011;11959;49.418;8.728;2022-11-12T12:44:10;13.60;;;9.43;;
23561;SDS011;11959;49.418;8.728;2022-11-12T12:46:38;12.88;;;9.95;;
23561;SDS011;11959;49.418;8.728;2022-11-12T12:49:09;14.70;;;9.93;;
23561;SDS011;11959;49.418;8.728;2022-11-12T12:51:40;12.60;;;9.40;;
23561;SDS011;11959;49.418;8.728;2022-11-12T12:57:00;11.73;;;8.98;;
23561;SDS011;11959;49.418;8.728;2022-11-12T12:59:28;13.25;;;9.55;;
23561;SDS011;11959;49.418;8.728;2022-11-12T13:01:57;13.10;;;9.90;;
23561;SDS011;11959;49.418;8.728;2022-11-12T13:07:14;12.02;;;9.45;;
23561;SDS011;11959;49.418;8.728;2022-11-12T13:09:40;13.52;;;9.13;;
23561;SDS011;11959;49.418;8.728;2022-11-12T13:12:07;12.13;;;9.45;;
23561;SDS011;11959;49.418;8.728;2022-11-12T13:17:02;14.15;;;9.55;;
23561;SDS011;11959;49.418;8.728;2022-11-12T13:19:31;11.38;;;9.20;;
23561;SDS011;11959;49.418;8.728;2022-11-12T13:25:00;11.52;;;9.10;;
23561;SDS011;11959;49.418;8.728;2022-11-12T13:40:24;12.27;;;9.25;;
23561;SDS011;11959;49.418;8.728;2022-11-12T13:42:54;13.50;;;10.43;;
23561;SDS011;11959;49.418;8.728;2022-11-12T13:45:26;18.25;;;11.38;;
23561;SDS011;11959;49.418;8.728;2022-11-12T13:47:52;13.77;;;9.48;;
23561;SDS011;11959;49.418;8.728;2022-11-12T13:50:20;15.40;;;10.50;;
23561;SDS011;11959;49.418;8.728;2022-11-12T13:52:47;12.50;;;9.20;;
23561;SDS011;11959;49.418;8.728;2022-11-12T13:55:14;14.25;;;10.38;;
23561;SDS011;11959;49.418;8.728;2022-11-12T13:57:47;15.88;;;10.90;;
23561;SDS011;11959;49.418;8.728;2022-11-12T14:00:23;15.10;;;10.20;;
23561;SDS011;11959;49.418;8.728;2022-11-12T14:02:57;15.70;;;10.85;;
23561;SDS011;11959;49.418;8.728;2022-11-12T14:05:31;37.20;;;12.68;;
23561;SDS011;11959;49.418;8.728;2022-11-12T14:08:21;68.82;;;17.33;;
23561;SDS011;11959;49.418;8.728;2022-11-12T14:16:27;17.95;;;11.88;;
23561;SDS011;11959;49.418;8.728;2022-11-12T14:21:47;15.73;;;10.68;;
23561;SDS011;11959;49.418;8.728;2022-11-12T14:24:42;17.10;;;11.77;;
23561;SDS011;11959;49.418;8.728;2022-11-12T14:27:20;15.95;;;10.38;;
23561;SDS011;11959;49.418;8.728;2022-11-12T14:32:36;15.68;;;11.45;;
23561;SDS011;11959;49.418;8.728;2022-11-12T14:37:54;15.00;;;10.48;;
23561;SDS011;11959;49.418;8.728;2022-11-12T14:40:27;13.07;;;9.45;;
23561;SDS011;11959;49.418;8.728;2022-11-12T14:42:55;14.27;;;10.40;;
23561;SDS011;11959;49.418;8.728;2022-11-12T14:45:21;17.83;;;11.45;;
23561;SDS011;11959;49.418;8.728;2022-11-12T14:47:48;15.95;;;11.27;;
23561;SDS011;11959;49.418;8.728;2022-11-12T14:50:18;16.50;;;11.55;;
23561;SDS011;11959;49.418;8.728;2022-11-12T14:53:04;21.30;;;16.33;;
23561;SDS011;11959;49.418;8.728;2022-11-12T14:55:37;19.27;;;14.60;;
23561;SDS011;11959;49.418;8.728;2022-11-12T14:58:05;17.35;;;12.18;;
23561;SDS011;11959;49.418;8.728;2022-11-12T15:00:43;23.25;;;14.73;;
23561;SDS011;11959;49.418;8.728;2022-11-12T15:03:11;17.70;;;12.23;;
23561;SDS011;11959;49.418;8.728;2022-11-12T15:08:37;18.05;;;11.68;;
23561;SDS011;11959;49.418;8.728;2022-11-12T15:13:42;21.98;;;17.25;;
23561;SDS011;11959;49.418;8.728;2022-11-12T15:16:09;18.30;;;13.13;;
23561;SDS011;11959;49.418;8.728;2022-11-12T15:18:41;20.38;;;14.07;;
23561;SDS011;11959;49.418;8.728;2022-11-12T15:21:19;22.50;;;14.52;;
23561;SDS011;11959;49.418;8.728;2022-11-12T15:23:53;22.15;;;14.18;;
23561;SDS011;11959;49.418;8.728;2022-11-12T15:26:38;20.52;;;13.18;;
23561;SDS011;11959;49.418;8.728;2022-11-12T15:31:44;19.92;;;13.52;;
23561;SDS011;11959;49.418;8.728;2022-11-12T15:34:42;21.40;;;14.52;;
23561;SDS011;11959;49.418;8.728;2022-11-12T15:39:44;19.88;;;13.10;;
23561;SDS011;11959;49.418;8.728;2022-11-12T15:42:16;19.13;;;12.48;;
23561;SDS011;11959;49.418;8.728;2022-11-12T15:44:45;22.77;;;13.80;;
23561;SDS011;11959;49.418;8.728;2022-11-12T15:47:17;21.10;;;14.23;;
23561;SDS011;11959;49.418;8.728;2022-11-12T15:49:51;20.52;;;14.13;;
23561;SDS011;11959;49.418;8.728;2022-11-12T15:52:21;21.90;;;14.85;;
23561;SDS011;11959;49.418;8.728;2022-11-12T15:54:47;19.73;;;13.73;;
23561;SDS011;11959;49.418;8.728;2022-11-12T15:57:17;20.80;;;13.55;;
23561;SDS011;11959;49.418;8.728;2022-11-12T15:59:49;21.98;;;13.57;;
23561;SDS011;11959;49.418;8.728;2022-11-12T16:02:24;19.77;;;13.30;;
23561;SDS011;11959;49.418;8.728;2022-11-12T16:04:51;21.65;;;13.70;;
23561;SDS011;11959;49.418;8.728;2022-11-12T16:07:17;29.67;;;15.23;;
23561;SDS011;11959;49.418;8.728;2022-11-12T16:09:42;19.88;;;13.23;;
23561;SDS011;11959;49.418;8.728;2022-11-12T16:12:11;30.00;;;15.27;;
23561;SDS011;11959;49.418;8.728;2022-11-12T16:14:39;23.08;;;14.52;;
23561;SDS011;11959;49.418;8.728;2022-11-12T16:17:05;27.75;;;15.60;;
23561;SDS011;11959;49.418;8.728;2022-11-12T16:19:36;23.75;;;15.30;;
23561;SDS011;11959;49.418;8.728;2022-11-12T16:22:01;20.08;;;13.13;;
23561;SDS011;11959;49.418;8.728;2022-11-12T16:24:28;20.45;;;12.65;;
23561;SDS011;11959;49.418;8.728;2022-11-12T16:26:53;19.80;;;13.60;;